createdAt,value
2022-12-14T00:01:23.082Z,-3.61
2022-12-14T00:04:23.522Z,-3.60
2022-12-14T00:07:19.920Z,-3.62
2022-12-14T00:10:09.805Z,-3.52
2022-12-14T00:13:08.923Z,-3.81
2022-12-14T00:16:00.252Z,-3.65
2022-12-14T00:18:56.004Z,-3.73
2022-12-14T00:21:46.130Z,-3.73
2022-12-14T00:25:15.403Z,-3.67
2022-12-14T00:28:08.255Z,-3.60
2022-12-14T00:31:53.076Z,-3.65
2022-12-14T00:34:13.071Z,-3.44
2022-12-14T00:37:13.013Z,-3.56
2022-12-14T00:40:19.583Z,-3.56
2022-12-14T00:43:17.903Z,-3.60
2022-12-14T00:46:07.235Z,-3.66
2022-12-14T00:49:10.355Z,-3.53
2022-12-14T00:52:05.255Z,-3.56
2022-12-14T00:55:04.335Z,-3.39
2022-12-14T00:58:08.580Z,-3.41
2022-12-14T01:01:07.108Z,-3.43
2022-12-14T01:04:24.489Z,-3.64
2022-12-14T01:07:20.478Z,-3.37
2022-12-14T01:10:17.794Z,-3.52
2022-12-14T01:13:13.870Z,-3.23
2022-12-14T01:16:20.276Z,-3.27
2022-12-14T01:19:40.860Z,-3.16
2022-12-14T01:22:29.099Z,-3.23
2022-12-14T01:25:29.809Z,-3.36
2022-12-14T01:28:20.508Z,-3.19
2022-12-14T01:31:24.775Z,-3.30
2022-12-14T01:34:13.060Z,-3.23
2022-12-14T01:37:08.116Z,-3.17
2022-12-14T01:40:03.897Z,-3.27
2022-12-14T01:42:56.617Z,-3.30
2022-12-14T01:45:47.397Z,-3.49
2022-12-14T01:48:36.670Z,-3.32
2022-12-14T01:51:38.824Z,-3.42
2022-12-14T01:54:34.130Z,-3.53
2022-12-14T01:57:34.971Z,-3.37
2022-12-14T02:00:31.715Z,-3.39
2022-12-14T02:03:42.494Z,-3.43
2022-12-14T02:06:36.751Z,-3.41
2022-12-14T02:09:34.433Z,-3.40
2022-12-14T02:12:40.942Z,-3.51
2022-12-14T02:15:38.066Z,-3.58
2022-12-14T02:18:40.690Z,-3.56
2022-12-14T02:22:12.148Z,-3.55
2022-12-14T02:26:03.632Z,-3.57
2022-12-14T02:29:48.806Z,-3.64
2022-12-14T02:33:06.103Z,-3.57
2022-12-14T02:36:45.161Z,-3.54
2022-12-14T02:40:12.194Z,-3.53
2022-12-14T02:43:47.531Z,-3.47
2022-12-14T02:47:17.644Z,-3.55
2022-12-14T02:50:27.159Z,-3.33
2022-12-14T02:53:49.480Z,-3.20
2022-12-14T02:59:56.906Z,-3.28
2022-12-14T03:02:48.496Z,-3.40
2022-12-14T03:05:36.813Z,-3.32
2022-12-14T03:08:29.782Z,-3.31
2022-12-14T03:11:32.208Z,-3.25
2022-12-14T03:14:46.414Z,-3.28
2022-12-14T03:17:34.915Z,-3.21
2022-12-14T03:20:28.983Z,-3.17
2022-12-14T03:23:30.587Z,-3.10
2022-12-14T03:26:47.716Z,-3.22
2022-12-14T03:30:06.658Z,-3.07
2022-12-14T03:33:01.416Z,-2.91
2022-12-14T03:36:11.509Z,-2.99
2022-12-14T03:39:05.474Z,-2.88
2022-12-14T03:42:20.303Z,-2.84
2022-12-14T03:45:22.769Z,-2.78
2022-12-14T03:48:58.314Z,-2.85
2022-12-14T03:52:07.293Z,-2.86
2022-12-14T03:55:23.162Z,-2.86
2022-12-14T03:58:29.201Z,-2.73
2022-12-14T04:01:52.765Z,-2.65
2022-12-14T04:05:30.990Z,-2.47
2022-12-14T04:08:52.768Z,-2.65
2022-12-14T04:12:24.717Z,-2.49
2022-12-14T04:15:39.370Z,-2.64
2022-12-14T04:18:59.541Z,-2.60
2022-12-14T04:22:05.053Z,-2.58
2022-12-14T04:26:00.593Z,-2.60
2022-12-14T04:29:28.399Z,-2.67
2022-12-14T04:32:27.497Z,-2.58
2022-12-14T04:35:33.096Z,-2.62
2022-12-14T04:38:34.257Z,-2.57
2022-12-14T04:41:39.503Z,-2.54
2022-12-14T04:45:19.444Z,-2.50
2022-12-14T04:48:25.463Z,-2.25
2022-12-14T04:51:34.239Z,-2.26
2022-12-14T04:54:52.917Z,-2.33
2022-12-14T04:57:47.199Z,-2.25
2022-12-14T05:01:11.883Z,-2.44
2022-12-14T05:04:27.573Z,-2.30
2022-12-14T05:07:58.470Z,-2.35
2022-12-14T05:11:30.470Z,-2.13
2022-12-14T05:15:07.872Z,-2.34
2022-12-14T05:18:19.792Z,-2.17
2022-12-14T05:21:52.385Z,-2.08
2022-12-14T05:28:30.761Z,-2.06
2022-12-14T05:35:07.566Z,-1.97
2022-12-14T05:38:04.511Z,-1.70
2022-12-14T05:41:02.237Z,-1.98
2022-12-14T05:44:03.058Z,-1.89
2022-12-14T05:46:52.512Z,-1.82
2022-12-14T05:49:41.695Z,-1.78
2022-12-14T05:52:39.593Z,-1.89
2022-12-14T05:55:55.415Z,-2.14
2022-12-14T06:02:06.193Z,-2.49
2022-12-14T06:05:11.221Z,-2.39
2022-12-14T06:08:07.125Z,-2.54
2022-12-14T06:11:14.008Z,-2.45
2022-12-14T06:14:40.361Z,-2.17
2022-12-14T06:21:47.068Z,-2.00
2022-12-14T06:24:35.562Z,-2.08
2022-12-14T06:27:27.007Z,-2.12
2022-12-14T06:30:16.288Z,-2.10
2022-12-14T06:33:08.843Z,-2.11
2022-12-14T06:36:26.680Z,-2.19
2022-12-14T06:39:17.416Z,-2.15
2022-12-14T06:45:05.846Z,-2.36
2022-12-14T06:47:57.536Z,-2.52
2022-12-14T06:50:50.360Z,-2.36
2022-12-14T06:53:38.939Z,-2.43
2022-12-14T06:56:28.557Z,-2.46
2022-12-14T06:59:18.051Z,-2.31
2022-12-14T07:02:15.068Z,-2.19
2022-12-14T07:05:11.122Z,-2.22
2022-12-14T07:08:24.451Z,-2.28
2022-12-14T07:11:15.302Z,-2.25
2022-12-14T07:14:06.517Z,-2.08
2022-12-14T07:16:58.200Z,-2.04
2022-12-14T07:19:51.415Z,-2.01
2022-12-14T07:22:41.241Z,-2.23
2022-12-14T07:25:35.881Z,-2.26
2022-12-14T07:28:37.178Z,-2.22
2022-12-14T07:31:52.397Z,-2.06
2022-12-14T07:34:57.534Z,-1.96
2022-12-14T07:41:45.435Z,-1.78
2022-12-14T07:45:35.735Z,-1.92
2022-12-14T07:49:22.027Z,-1.49
2022-12-14T07:52:42.780Z,-1.33
2022-12-14T07:58:46.916Z,-1.67
2022-12-14T08:01:42.390Z,-1.70
2022-12-14T08:04:32.430Z,-1.62
2022-12-14T08:07:32.363Z,-1.35
2022-12-14T08:10:23.350Z,-1.30
2022-12-14T08:13:11.725Z,-1.08
2022-12-14T08:16:11.675Z,-0.91
2022-12-14T08:19:01.587Z,-0.77
2022-12-14T08:21:52.019Z,-0.93
2022-12-14T08:25:08.141Z,-0.83
2022-12-14T08:28:06.174Z,-1.15
2022-12-14T08:30:57.241Z,-1.24
2022-12-14T08:33:49.500Z,-1.04
2022-12-14T08:36:49.008Z,-0.82
2022-12-14T08:39:47.767Z,-1.05
2022-12-14T08:42:38.224Z,-0.76
2022-12-14T08:45:33.267Z,-0.74
2022-12-14T08:48:21.841Z,-0.92
2022-12-14T08:51:14.719Z,-1.11
2022-12-14T08:54:07.144Z,-1.18
2022-12-14T08:57:08.011Z,-1.25
2022-12-14T09:00:01.609Z,-1.45
2022-12-14T09:02:55.331Z,-1.20
2022-12-14T09:06:15.843Z,-1.06
2022-12-14T09:09:15.998Z,-1.46
2022-12-14T09:12:10.267Z,-1.43
2022-12-14T09:53:05.252Z,-1.18
2022-12-14T09:56:15.779Z,-1.61
2022-12-14T09:59:25.017Z,-1.89
2022-12-14T10:03:07.128Z,-2.00
2022-12-14T10:06:30.186Z,-1.35
2022-12-14T10:10:01.511Z,-1.35
2022-12-14T10:13:39.132Z,-1.03
2022-12-14T10:17:10.225Z,-1.40
2022-12-14T10:20:16.186Z,-1.80
2022-12-14T10:23:05.829Z,-1.84
2022-12-14T10:26:09.519Z,-1.92
2022-12-14T10:29:23.892Z,-2.01
2022-12-14T10:32:39.832Z,-1.83
2022-12-14T10:35:52.699Z,-1.65
2022-12-14T10:39:09.866Z,-1.74
2022-12-14T10:42:41.815Z,-1.90
2022-12-14T10:45:47.320Z,-1.87
2022-12-14T10:48:56.628Z,-1.88
2022-12-14T10:52:21.358Z,-1.98
2022-12-14T10:55:42.114Z,-1.56
2022-12-14T10:58:31.168Z,-1.31
2022-12-14T11:01:26.879Z,-0.78
2022-12-14T11:04:43.772Z,-0.75
2022-12-14T11:07:37.491Z,-1.39
2022-12-14T11:10:37.649Z,-1.49
2022-12-14T11:13:29.651Z,-1.18
2022-12-14T11:16:38.893Z,-1.32
2022-12-14T11:19:30.495Z,-1.52
2022-12-14T11:22:36.103Z,-1.43
2022-12-14T11:25:42.280Z,-1.19
2022-12-14T11:29:05.951Z,-1.19
2022-12-14T11:32:02.913Z,-1.40
2022-12-14T11:34:59.755Z,-1.45
2022-12-14T11:37:59.286Z,-1.72
2022-12-14T11:40:50.336Z,-1.33
2022-12-14T11:43:42.984Z,-1.33
2022-12-14T11:46:57.429Z,-0.93
2022-12-14T11:49:54.411Z,-1.07
2022-12-14T11:53:18.024Z,-0.81
2022-12-14T11:56:27.736Z,-0.76
2022-12-14T11:59:27.175Z,-0.47
2022-12-14T12:02:32.733Z,-0.69
2022-12-14T12:05:39.812Z,-0.46
2022-12-14T12:08:51.811Z,-0.37
2022-12-14T14:47:58.289Z,-0.64
2022-12-14T14:50:49.247Z,-0.83
2022-12-14T14:53:40.979Z,-0.93
2022-12-14T14:56:46.135Z,-0.96
2022-12-14T14:59:50.967Z,-1.02
2022-12-14T15:03:41.530Z,-1.02
2022-12-14T15:06:44.469Z,-1.40
2022-12-14T15:10:33.946Z,-1.35
2022-12-14T15:13:35.432Z,-1.71
2022-12-14T15:16:59.572Z,-1.63
2022-12-14T15:23:11.803Z,-2.11
2022-12-14T15:26:05.389Z,-2.26
2022-12-14T15:29:19.464Z,-2.25
2022-12-14T15:32:51.481Z,-2.28
2022-12-14T17:45:15.281Z,-4.40
2022-12-14T18:32:04.631Z,-4.43
2022-12-14T18:35:29.497Z,-4.48
2022-12-14T18:38:29.971Z,-4.01
2022-12-14T18:42:16.632Z,-4.08
2022-12-14T18:46:09.665Z,-4.07
2022-12-14T18:49:46.409Z,-4.08
2022-12-14T18:52:48.700Z,-4.10
2022-12-14T18:55:56.796Z,-3.91
2022-12-14T18:59:24.425Z,-4.29
2022-12-14T19:02:26.501Z,-4.00
2022-12-14T19:05:43.719Z,-4.66
2022-12-14T20:10:38.982Z,-4.80
2022-12-14T20:18:21.759Z,-5.35
2022-12-14T20:32:50.339Z,-4.76
2022-12-14T20:48:29.031Z,-4.99
2022-12-14T20:59:09.820Z,-5.22
2022-12-14T21:36:18.023Z,-4.85
2022-12-14T21:44:07.757Z,-5.13
2022-12-14T21:47:49.552Z,-5.48
2022-12-14T21:54:08.375Z,-5.53
2022-12-14T21:57:22.996Z,-5.46
2022-12-14T22:11:37.638Z,-5.34
2022-12-14T22:18:48.437Z,-5.40
2022-12-14T22:25:08.877Z,-5.11
2022-12-14T22:39:21.048Z,-5.06
2022-12-14T22:47:57.097Z,-5.10
2022-12-14T22:51:35.299Z,-5.03
2022-12-14T22:58:01.348Z,-5.09
2022-12-14T23:00:59.063Z,-5.37
2022-12-14T23:04:06.741Z,-5.67
2022-12-14T23:07:13.297Z,-5.95
2022-12-14T23:10:39.451Z,-5.81
2022-12-14T23:14:08.033Z,-5.47
2022-12-14T23:24:40.950Z,-5.21
2022-12-14T23:36:25.693Z,-5.39
2022-12-14T23:39:44.257Z,-5.25
2022-12-14T23:43:50.112Z,-5.18
2022-12-14T23:51:06.745Z,-5.21
2022-12-14T23:54:20.583Z,-5.24
2022-12-14T23:57:31.518Z,-5.38
